Malmo, NE (68040)

7:14 PM CDT on August 04, 2015 (GMT -0500)
County Road R and County Road 21 | | Change Station
CLOSE
Current Station
Personal Weather Station
Location: Colon, NE
Elevation: 1299 ft
Nearby Weather Stations
Active Advisory: Flood Warning

Elev 1299 ft 41.31 °N, 96.69 °W | Updated 12 seconds ago

Clear
Clear
75.4 °F
Feels Like 75 °F
N
5.1
Wind Variable Wind from ENE
Gusts 7.4 mph

Today
High -- | Low -- °F
--% Chance of Precip.
Yesterday
High -- | Low -- °F
Precip. -- in
6:24 AM 8:40 PM
Waning Gibbous, 73% visible
Pressure 29.94 in
Visibility 10.0 miles
Clouds Mostly Cloudy 5000 ft
Mostly Cloudy 6000 ft
Heat Index 75 °F
Dew Point 71 °F
Humidity 87%
Rainfall 0.69 in
Snow Depth Not available.
UV 1 out of 12
Pollen 6.90 out of 12
Air Quality Not available.
Flu Activity Not available.
METAR KAHQ 042355Z AUTO 07007KT 10SM BKN050 BKN060 24/21 A2994 RMK AO2 T02430205 10270 20219

More Conditions Fewer Conditions

Pressure 29.94 in
Visibility 10.0 miles
Clouds Mostly Cloudy 5000 ft
Mostly Cloudy 6000 ft
Heat Index 75 °F
Dew Point 71 °F
Humidity 87%
Rainfall 0.69 in
Snow Depth Not available.
UV 1 out of 12
Pollen 6.90 out of 12
Air Quality Not available.
Flu Activity Not available.
METAR KAHQ 042355Z AUTO 07007KT 10SM BKN050 BKN060 24/21 A2994 RMK AO2 T02430205 10270 20219

More Conditions Fewer Conditions

10-Day Weather Forecast

×

Almanac

Astronomy

Aug. 04, 2015 Rise Set
Actual Time
Civil Twilight
Nautical Twilight
Astronomical Twilight
Moon
Length of Visible Light
Length of Day
Tomorrow will be .
, % of the Moon is Illuminated

Today's Extremes

State Highs State Lows

Community

WunderPhotos

Upload Photos

1,844,034 photos uploaded!

WunderBlogs® & News

Nearby

Air Quality

  Air Quality AQ Index Pollutant
Not available.

Snow Depth

Station Depth Elevation

Earthquake Activity

City Distance Mag. Time & Date
Minimum magnitude displayed is 2.5.

Coastal Water Temperatures

Place Temperature

Stations

Nearby Weather Stations

Station Location Temp. Windchill Dew Point Humidity Wind Precip. Elev Updated Type
                   
Flood Warning
Statement as of 7:08 PM CDT on August 04, 2015

... The Flood Warning has been cancelled for central Saunders
County...

Flood waters have receded... and are no longer expected to pose a
threat to life or property. Please continue to heed any Road
closures.

Lat... Lon 4117 9654 4115 9657 4117 9662 4118 9672
      4121 9678 4125 9676 4121 9668 4121 9661


Fobert